Time;durP1;ratioP1;P1;durP2;ratioP2;P2;SDS_P1;SDS_P2;PMS_P1;PMS_P2;Temp;Humidity;BMP_temperature;BMP_pressure;BME280_temperature;BME280_humidity;BME280_pressure;Samples;Min_cycle;Max_cycle;Signal;HPM_P1;HPM_P2
2022/08/03 00:02:07;;;;;;;3.78;2.80;;;;;;;22.28;50.05;101127.41;5063064;28;20126;-67
2022/08/03 00:04:33;;;;;;;6.43;2.75;;;;;;;22.48;49.27;101122.00;5061237;28;20098;-67
2022/08/03 00:06:59;;;;;;;8.48;3.17;;;;;;;22.38;51.61;101129.22;5050340;28;20504;-67
2022/08/03 00:09:26;;;;;;;9.77;3.20;;;;;;;22.50;50.84;101125.41;5062012;28;20484;-67
2022/08/03 00:11:52;;;;;;;4.80;3.05;;;;;;;22.57;50.07;101119.31;5064111;28;20048;-66
2022/08/03 00:14:20;;;;;;;3.55;2.63;;;;;;;22.76;48.66;101115.75;5062156;28;20045;-66
2022/08/03 00:16:46;;;;;;;3.17;2.65;;;;;;;22.80;48.05;101117.94;5064202;28;20078;-66
2022/08/03 00:19:12;;;;;;;4.35;3.03;;;;;;;22.86;48.06;101110.34;5061838;28;20045;-66
2022/08/03 00:21:39;;;;;;;3.95;2.88;;;;;;;22.97;49.18;101113.66;5051960;28;20040;-66
2022/08/03 00:24:05;;;;;;;3.28;2.40;;;;;;;23.08;48.38;101107.25;5063378;28;20141;-66
2022/08/03 00:26:32;;;;;;;4.07;2.75;;;;;;;23.02;49.04;101111.34;5064436;28;20044;-66
2022/08/03 00:28:58;;;;;;;6.43;2.90;;;;;;;23.00;49.13;101107.16;5061402;28;20119;-67
2022/08/03 00:31:26;;;;;;;6.90;3.45;;;;;;;22.87;49.27;101102.19;5063452;28;20062;-67
2022/08/03 00:33:52;;;;;;;4.90;3.22;;;;;;;22.87;48.92;101104.00;5064362;28;20492;-67
2022/08/03 00:36:19;;;;;;;5.10;3.17;;;;;;;22.82;48.99;101107.13;5062506;28;20389;-66
2022/08/03 00:38:45;;;;;;;4.50;3.00;;;;;;;22.53;49.74;101103.72;5063264;28;20466;-66
2022/08/03 00:41:11;;;;;;;10.15;3.42;;;;;;;22.24;49.81;101112.69;5060232;28;20048;-66
2022/08/03 00:43:38;;;;;;;5.50;2.70;;;;;;;22.25;49.21;101106.34;5061299;28;20041;-66
2022/08/03 00:46:04;;;;;;;10.73;3.53;;;;;;;22.07;50.55;101102.75;5064316;28;20044;-66
2022/08/03 00:48:32;;;;;;;5.53;2.92;;;;;;;22.02;50.41;101098.84;5063946;28;20106;-66
2022/08/03 00:50:58;;;;;;;5.55;3.20;;;;;;;21.94;51.07;101107.56;5062517;28;20102;-66
2022/08/03 00:53:25;;;;;;;6.28;2.78;;;;;;;21.80;52.41;101102.63;5064026;28;20122;-66
2022/08/03 00:55:51;;;;;;;7.95;2.90;;;;;;;21.93;51.67;101095.19;5064343;28;20049;-66
2022/08/03 00:58:18;;;;;;;4.00;2.85;;;;;;;22.10;51.01;101105.13;5062677;28;20098;-66
2022/08/03 01:00:44;;;;;;;8.85;3.38;;;;;;;22.13;51.00;101098.66;5063606;28;20054;-66
2022/08/03 01:03:11;;;;;;;5.03;2.97;;;;;;;22.01;52.97;101100.66;5062405;28;20102;-67
2022/08/03 01:05:49;;;;;;;5.82;3.08;;;;;;;22.38;49.66;101099.84;5061786;28;20042;-66
2022/08/03 01:08:23;;;;;;;7.60;3.30;;;;;;;22.42;49.15;101101.22;5063234;28;20397;-66
2022/08/03 01:11:00;;;;;;;7.55;3.53;;;;;;;22.27;50.28;101101.72;5063282;28;20123;-66
2022/08/03 01:13:30;;;;;;;5.55;3.00;;;;;;;22.29;50.47;101102.38;5062960;28;20098;-66
2022/08/03 01:16:02;;;;;;;6.50;3.15;;;;;;;22.30;50.86;101101.41;5062981;28;20098;-67
2022/08/03 01:18:36;;;;;;;6.78;3.70;;;;;;;22.28;50.83;101100.69;5067469;28;20566;-67
2022/08/03 01:21:09;;;;;;;4.57;2.92;;;;;;;22.10;52.04;101105.13;5066487;28;20086;-67
2022/08/03 01:24:05;;;;;;;9.38;3.80;;;;;;;21.81;52.30;101090.94;5066593;28;20109;-67
2022/08/03 01:26:46;;;;;;;4.45;3.15;;;;;;;21.60;52.40;101096.47;5068288;28;20099;-67
2022/08/03 01:29:40;;;;;;;5.03;2.92;;;;;;;21.47;53.25;101095.88;5066434;28;20581;-67
2022/08/03 01:32:12;;;;;;;8.70;3.42;;;;;;;21.12;54.32;101092.94;5066777;28;20045;-67
2022/08/03 01:34:44;;;;;;;8.10;3.40;;;;;;;21.03;54.40;101091.03;5065261;28;20071;-67
2022/08/03 01:37:13;;;;;;;7.05;3.15;;;;;;;20.82;54.86;101086.66;5065894;28;20041;-67
2022/08/03 01:39:41;;;;;;;5.32;3.10;;;;;;;20.75;55.17;101084.69;5066162;28;20048;-67
2022/08/03 01:42:10;;;;;;;10.35;3.78;;;;;;;20.91;54.71;101079.69;5066191;28;20101;-67
2022/08/03 01:44:41;;;;;;;6.88;3.33;;;;;;;20.78;54.86;101087.06;5056733;28;20044;-67
2022/08/03 01:47:09;;;;;;;3.60;2.72;;;;;;;21.03;53.86;101089.22;5065741;28;20050;-67
2022/08/03 01:49:40;;;;;;;9.02;3.75;;;;;;;20.89;53.85;101086.94;5065523;28;20048;-66
2022/08/03 01:52:08;;;;;;;5.60;3.17;;;;;;;20.74;54.16;101090.97;5066724;28;20657;-66
2022/08/03 01:54:37;;;;;;;7.03;3.40;;;;;;;20.72;54.54;101096.47;5065149;28;20044;-67
2022/08/03 01:57:04;;;;;;;5.22;2.83;;;;;;;20.92;53.85;101085.81;5065530;28;20122;-67
2022/08/03 01:59:34;;;;;;;5.30;3.22;;;;;;;21.05;53.26;101089.09;5066321;28;20492;-67
2022/08/03 02:02:03;;;;;;;7.07;3.30;;;;;;;21.12;53.30;101093.78;5065656;28;20118;-66
2022/08/03 02:04:30;;;;;;;7.63;3.55;;;;;;;21.22;53.05;101099.94;5065426;28;20651;-66
2022/08/03 02:06:58;;;;;;;8.07;3.25;;;;;;;21.20;53.02;101085.09;5067053;28;20569;-66
2022/08/03 02:09:26;;;;;;;8.30;3.70;;;;;;;21.15;52.60;101101.50;5066278;28;21051;-68
2022/08/03 02:11:56;;;;;;;7.82;3.05;;;;;;;20.77;54.90;101090.69;5064263;28;20036;-67
2022/08/03 02:14:23;;;;;;;5.25;3.30;;;;;;;20.52;55.26;101085.84;5066133;28;20055;-67
2022/08/03 02:16:50;;;;;;;5.40;3.10;;;;;;;20.30;56.16;101103.72;5066568;28;20052;-67
2022/08/03 02:19:19;;;;;;;5.50;3.05;;;;;;;20.35;56.61;101088.19;5065033;28;20416;-67
2022/08/03 02:21:46;;;;;;;10.70;4.07;;;;;;;20.78;54.75;101087.91;5065097;28;20496;-67
2022/08/03 02:24:13;;;;;;;5.05;3.45;;;;;;;20.97;54.67;101089.78;5065963;28;20052;-67
2022/08/03 02:26:41;;;;;;;5.82;3.67;;;;;;;20.87;55.14;101088.94;5064837;28;20036;-67
2022/08/03 02:29:13;;;;;;;7.15;3.70;;;;;;;21.17;53.87;101091.53;5066065;28;20080;-67
2022/08/03 02:31:42;;;;;;;8.85;3.58;;;;;;;21.19;53.81;101091.38;5065550;28;20040;-67
2022/08/03 02:34:14;;;;;;;8.93;3.80;;;;;;;21.14;54.80;101090.94;5065415;28;20040;-67
2022/08/03 02:36:46;;;;;;;9.00;3.55;;;;;;;21.20;53.51;101090.41;5064815;28;20048;-66
2022/08/03 02:39:15;;;;;;;7.78;3.72;;;;;;;21.17;53.74;101080.03;5064524;28;20049;-67
2022/08/03 02:41:45;;;;;;;5.43;3.33;;;;;;;21.00;54.27;101086.00;5065015;28;20048;-67
2022/08/03 02:44:13;;;;;;;4.65;3.40;;;;;;;21.05;54.55;101081.94;5065138;28;20090;-67
2022/08/03 02:46:43;;;;;;;5.05;3.50;;;;;;;21.01;54.68;101093.88;5062826;28;20040;-67
2022/08/03 02:49:13;;;;;;;5.20;3.40;;;;;;;21.00;54.87;101094.00;5065843;28;20052;-67
2022/08/03 02:51:42;;;;;;;7.88;3.40;;;;;;;20.95;54.49;101086.44;5064809;28;20097;-67
2022/08/03 02:54:10;;;;;;;6.07;3.70;;;;;;;20.93;54.76;101091.03;5065873;28;20045;-67
2022/08/03 02:56:37;;;;;;;7.65;3.45;;;;;;;20.73;55.16;101087.47;5064306;28;20086;-68
2022/08/03 02:59:06;;;;;;;6.10;3.35;;;;;;;20.81;54.91;101082.31;5064171;28;20561;-67
2022/08/03 03:01:33;;;;;;;5.50;3.60;;;;;;;20.55;56.18;101086.44;5064713;28;20109;-67
2022/08/03 03:04:00;;;;;;;7.38;3.53;;;;;;;20.49;56.17;101075.47;5066167;28;20045;-67
2022/08/03 03:06:28;;;;;;;7.82;4.18;;;;;;;20.64;55.27;101072.31;5063347;28;20062;-67
2022/08/03 03:08:56;;;;;;;6.10;3.97;;;;;;;20.69;55.19;101074.56;5064823;28;20101;-66
2022/08/03 03:11:24;;;;;;;10.80;3.22;;;;;;;20.53;56.22;101083.06;5064505;28;20083;-66
2022/08/03 03:13:52;;;;;;;8.05;3.85;;;;;;;20.39;56.89;101089.63;5058642;28;20037;-66
2022/08/03 03:16:19;;;;;;;4.97;3.63;;;;;;;20.06;58.04;101089.84;5063806;28;20079;-66
2022/08/03 03:18:47;;;;;;;4.88;3.28;;;;;;;19.86;58.84;101085.34;5064995;28;20048;-66
2022/08/03 03:21:18;;;;;;;7.10;3.90;;;;;;;19.80;58.60;101088.53;5064232;28;20059;-66
2022/08/03 03:23:45;;;;;;;10.25;3.33;;;;;;;19.76;59.07;101085.31;5065034;28;20068;-66
2022/08/03 03:26:14;;;;;;;7.15;4.05;;;;;;;19.60;59.38;101087.56;5064760;28;20066;-66
2022/08/03 03:28:40;;;;;;;5.18;3.65;;;;;;;19.57;59.89;101085.16;5063039;28;20060;-66
2022/08/03 03:31:07;;;;;;;10.23;4.00;;;;;;;19.36;60.75;101092.22;5064294;28;20044;-66
2022/08/03 03:33:35;;;;;;;4.53;3.60;;;;;;;19.40;60.22;101083.03;5064002;28;20541;-66
2022/08/03 03:36:02;;;;;;;20.40;4.60;;;;;;;19.55;59.82;101088.94;5062839;28;20503;-66
2022/08/03 03:38:28;;;;;;;4.43;3.63;;;;;;;19.34;60.42;101087.03;5063550;28;20074;-66
2022/08/03 03:40:55;;;;;;;7.82;3.80;;;;;;;19.48;60.10;101091.22;5063081;28;20048;-65
2022/08/03 03:43:24;;;;;;;7.13;3.60;;;;;;;19.41;60.47;101082.91;5063164;28;20590;-66
2022/08/03 03:45:52;;;;;;;8.38;4.20;;;;;;;19.68;59.81;101092.22;5058592;28;20047;-66
2022/08/03 03:48:19;;;;;;;7.05;3.97;;;;;;;19.49;60.23;101090.25;5065214;28;20399;-66
2022/08/03 03:50:46;;;;;;;7.32;3.90;;;;;;;19.41;60.18;101088.25;5063664;28;20044;-67
2022/08/03 03:53:14;;;;;;;14.57;4.13;;;;;;;19.47;60.11;101091.38;5058524;28;20043;-66
2022/08/03 03:55:42;;;;;;;8.90;4.32;;;;;;;19.48;60.13;101085.06;5074332;28;20040;-66
2022/08/03 03:58:08;;;;;;;5.10;3.88;;;;;;;19.33;60.42;101080.00;5064222;28;20818;-66
2022/08/03 04:00:36;;;;;;;11.25;3.90;;;;;;;19.42;60.53;101079.31;5064683;28;20036;-66
2022/08/03 04:03:03;;;;;;;10.63;4.82;;;;;;;18.99;61.71;101077.63;5063334;28;20048;-66
2022/08/03 04:11:08;;;;;;;7.57;4.38;;;;;;;19.06;62.51;101087.63;5063395;28;20055;-66
2022/08/03 04:13:38;;;;;;;8.40;4.55;;;;;;;19.15;61.87;101088.66;5062521;28;20090;-66
2022/08/03 04:16:08;;;;;;;6.50;3.88;;;;;;;19.54;60.89;101085.41;5063895;28;20102;-66
2022/08/03 04:18:38;;;;;;;9.27;4.55;;;;;;;19.50;60.99;101091.13;5065033;28;20052;-66
2022/08/03 04:21:09;;;;;;;8.73;4.40;;;;;;;19.82;60.56;101090.09;5062651;28;20090;-67
2022/08/03 04:23:39;;;;;;;8.85;4.53;;;;;;;19.50;61.78;101083.97;5064608;28;20044;-66
2022/08/03 04:26:09;;;;;;;7.53;3.88;;;;;;;19.31;62.76;101089.09;5064629;28;20053;-66
2022/08/03 04:28:39;;;;;;;7.93;4.20;;;;;;;19.82;60.34;101095.41;5064190;28;20052;-66
2022/08/03 04:31:07;;;;;;;4.70;4.10;;;;;;;20.01;60.31;101091.19;5062857;28;20048;-66
2022/08/03 04:33:36;;;;;;;7.18;4.10;;;;;;;20.03;60.32;101094.56;5063190;28;20094;-66
2022/08/03 04:36:06;;;;;;;5.97;4.00;;;;;;;19.81;60.28;101095.53;5064258;28;20053;-67
2022/08/03 04:38:40;;;;;;;6.55;3.90;;;;;;;19.85;60.11;101099.63;5063926;28;20048;-67
2022/08/03 04:41:08;;;;;;;7.35;4.10;;;;;;;20.10;59.27;101096.56;5063573;28;20775;-67
2022/08/03 04:43:38;;;;;;;10.15;4.85;;;;;;;20.50;58.05;101101.16;5062691;28;20056;-67
2022/08/03 04:46:06;;;;;;;7.07;4.25;;;;;;;20.25;58.46;101102.41;5065996;28;20051;-67
2022/08/03 04:48:34;;;;;;;6.70;4.20;;;;;;;20.22;57.90;101106.16;5067886;28;20044;-67
2022/08/03 04:51:03;;;;;;;7.90;4.13;;;;;;;20.20;58.76;101100.13;5066467;28;20564;-67
2022/08/03 04:53:29;;;;;;;13.50;3.97;;;;;;;20.39;58.03;101100.28;5065169;28;20085;-67
2022/08/03 04:55:55;;;;;;;4.68;3.80;;;;;;;20.50;57.29;101095.81;5075591;28;20041;-67
2022/08/03 04:58:22;;;;;;;10.35;4.10;;;;;;;20.24;58.40;101101.56;5068385;28;20102;-67
2022/08/03 05:00:50;;;;;;;8.50;4.32;;;;;;;20.54;58.23;101103.41;5065729;28;20045;-67
2022/08/03 05:03:18;;;;;;;5.68;3.80;;;;;;;21.42;55.38;101102.63;5067700;28;20492;-66
2022/08/03 05:05:44;;;;;;;6.07;3.92;;;;;;;21.52;54.98;101101.66;5067159;28;20523;-66
2022/08/03 05:08:11;;;;;;;5.68;3.67;;;;;;;21.84;54.16;101104.00;5067268;28;20068;-66
2022/08/03 05:10:37;;;;;;;10.85;3.70;;;;;;;21.78;53.74;101112.59;5067311;28;20090;-66
2022/08/03 05:13:04;;;;;;;8.60;4.30;;;;;;;22.12;53.05;101113.00;5067056;28;20052;-65
2022/08/03 05:15:30;;;;;;;5.03;3.25;;;;;;;22.39;52.30;101106.88;5066451;28;20045;-65
2022/08/03 05:17:56;;;;;;;5.90;3.60;;;;;;;22.48;51.74;101106.81;5068220;28;20378;-65
2022/08/03 05:20:24;;;;;;;8.18;4.00;;;;;;;22.53;52.12;101107.25;5066166;28;20553;-66
2022/08/03 05:22:50;;;;;;;7.03;3.92;;;;;;;22.62;52.20;101108.16;5068367;28;20103;-66
2022/08/03 05:25:17;;;;;;;6.85;3.47;;;;;;;22.01;53.72;101107.81;5068320;28;21739;-66
2022/08/03 05:27:43;;;;;;;14.73;3.58;;;;;;;22.89;51.13;101100.19;5066644;28;20036;-66
2022/08/03 05:30:10;;;;;;;6.70;3.83;;;;;;;22.55;51.57;101101.72;5067612;28;20072;-66
2022/08/03 05:32:36;;;;;;;9.40;3.53;;;;;;;22.68;51.45;101097.78;5065851;28;20094;-68
2022/08/03 05:35:02;;;;;;;8.10;4.32;;;;;;;23.16;50.23;101112.69;5066338;28;20052;-69
2022/08/03 05:37:30;;;;;;;6.47;3.38;;;;;;;23.52;49.64;101118.91;5068818;28;20052;-70
2022/08/03 05:39:56;;;;;;;4.13;3.00;;;;;;;23.34;49.75;101115.38;5065416;28;20040;-72
2022/08/03 05:42:23;;;;;;;7.03;3.40;;;;;;;23.98;47.98;101113.25;5065735;28;20132;-71
2022/08/03 05:44:49;;;;;;;4.80;3.13;;;;;;;24.20;46.63;101112.78;5067691;28;20094;-71
2022/08/03 05:47:16;;;;;;;7.22;3.40;;;;;;;24.37;47.33;101120.94;5064089;28;20101;-70
2022/08/03 05:49:42;;;;;;;4.85;3.30;;;;;;;24.95;46.32;101111.16;5075769;28;20458;-70
2022/08/03 05:52:08;;;;;;;9.27;3.40;;;;;;;25.38;45.59;101106.56;5068333;28;20097;-70
2022/08/03 05:54:36;;;;;;;3.78;3.17;;;;;;;25.10;45.63;101112.22;5066193;28;20500;-71
2022/08/03 05:57:02;;;;;;;7.72;3.13;;;;;;;25.48;44.82;101110.78;5065569;28;20565;-71
2022/08/03 05:59:29;;;;;;;3.25;2.92;;;;;;;26.37;42.31;101108.06;5067165;28;20048;-70
2022/08/03 06:01:55;;;;;;;15.38;3.38;;;;;;;26.69;42.12;101108.94;5065844;28;20041;-70
2022/08/03 06:04:21;;;;;;;3.38;2.97;;;;;;;26.59;42.37;101101.09;5065933;28;20059;-70
2022/08/03 06:06:49;;;;;;;7.18;3.28;;;;;;;26.67;42.40;101108.28;5067010;28;20040;-70
2022/08/03 06:09:16;;;;;;;10.20;3.22;;;;;;;26.36;42.23;101110.91;5065667;28;20123;-70
2022/08/03 06:11:43;;;;;;;6.88;2.55;;;;;;;26.87;42.51;101106.88;5066057;28;20040;-70
2022/08/03 06:14:09;;;;;;;4.50;2.78;;;;;;;27.49;39.93;101110.41;5066474;28;20109;-70
2022/08/03 06:16:36;;;;;;;8.68;2.65;;;;;;;26.63;40.55;101105.94;5065386;28;20046;-70
2022/08/03 06:19:02;;;;;;;5.47;2.90;;;;;;;26.28;41.06;101116.28;5064710;28;20098;-70
2022/08/03 06:21:29;;;;;;;7.15;2.58;;;;;;;26.70;41.82;101100.72;5067554;28;20044;-70
2022/08/03 06:23:55;;;;;;;4.60;2.58;;;;;;;27.41;39.60;101105.88;5065666;28;20504;-70
2022/08/03 06:26:23;;;;;;;3.25;2.45;;;;;;;26.92;39.31;101110.72;5065833;28;20049;-70
2022/08/03 06:28:51;;;;;;;12.10;2.63;;;;;;;26.96;41.98;101106.66;5065966;28;20048;-70
2022/08/03 06:31:17;;;;;;;6.28;2.78;;;;;;;27.10;39.15;101095.13;5064357;28;20044;-70
2022/08/03 06:33:43;;;;;;;9.35;2.88;;;;;;;27.33;39.09;101099.72;5066366;28;20098;-70
2022/08/03 06:36:10;;;;;;;3.90;2.40;;;;;;;28.05;39.20;101100.97;5066390;28;20071;-70
2022/08/03 06:38:36;;;;;;;9.55;2.60;;;;;;;27.42;38.81;101110.22;5064306;28;20041;-70
2022/08/03 06:41:03;;;;;;;8.73;2.42;;;;;;;27.96;39.53;101104.78;5065274;28;20048;-70
2022/08/03 06:43:29;;;;;;;2.95;2.00;;;;;;;28.44;38.14;101109.69;5065613;28;20048;-69
2022/08/03 06:45:56;;;;;;;10.05;2.45;;;;;;;28.61;36.60;101104.06;5064447;28;20088;-69
2022/08/03 06:48:23;;;;;;;6.40;2.35;;;;;;;29.23;35.53;101104.47;5066394;28;20520;-69
2022/08/03 06:50:49;;;;;;;6.40;2.60;;;;;;;29.00;36.21;101108.16;5063807;28;20070;-69
2022/08/03 06:53:16;;;;;;;3.65;2.20;;;;;;;28.85;35.61;101112.75;5063950;28;20044;-69
2022/08/03 06:55:42;;;;;;;5.18;2.42;;;;;;;29.18;35.14;101107.72;5072569;28;20477;-69
2022/08/03 06:58:08;;;;;;;4.47;2.10;;;;;;;29.84;32.64;101101.09;5065290;28;20044;-69
2022/08/03 07:00:35;;;;;;;7.38;2.10;;;;;;;30.43;33.19;101101.56;5062867;28;20093;-69
2022/08/03 07:03:02;;;;;;;5.38;2.05;;;;;;;28.76;34.64;101108.47;5066421;28;20603;-69
2022/08/03 07:05:29;;;;;;;7.65;2.47;;;;;;;29.07;34.77;101104.69;5063499;28;20131;-70
2022/08/03 07:07:57;;;;;;;7.32;2.75;;;;;;;28.54;36.12;101112.94;5062137;28;20044;-70
2022/08/03 07:10:24;;;;;;;4.63;2.00;;;;;;;30.01;34.81;101114.38;5065145;28;20040;-70
2022/08/03 07:12:50;;;;;;;9.20;2.30;;;;;;;30.56;33.12;101103.50;5063719;28;20075;-70
2022/08/03 07:15:17;;;;;;;5.88;2.22;;;;;;;30.76;31.92;101104.44;5063535;28;20140;-70
2022/08/03 07:17:43;;;;;;;4.35;2.00;;;;;;;31.33;33.24;101105.91;5065362;28;20045;-70
2022/08/03 07:20:12;;;;;;;10.60;2.42;;;;;;;31.45;31.28;101104.22;5064371;28;20048;-70
2022/08/03 07:22:38;;;;;;;5.70;2.28;;;;;;;30.85;32.06;101110.53;5064870;28;20067;-70
2022/08/03 07:25:05;;;;;;;4.38;2.05;;;;;;;31.00;32.07;101103.13;5064039;28;20052;-70
2022/08/03 07:27:32;;;;;;;4.22;2.30;;;;;;;31.41;32.30;101103.00;5063835;28;20049;-70
2022/08/03 07:29:59;;;;;;;3.40;2.00;;;;;;;32.01;31.60;101109.28;5063403;28;20497;-70
2022/08/03 07:32:25;;;;;;;5.10;1.98;;;;;;;32.82;30.21;101105.16;5065739;28;20458;-70
2022/08/03 07:34:52;;;;;;;3.75;2.05;;;;;;;33.34;29.74;101097.78;5063501;28;20076;-70
2022/08/03 07:37:20;;;;;;;10.30;2.20;;;;;;;33.02;29.09;101097.75;5064362;28;20052;-70
2022/08/03 07:39:46;;;;;;;5.47;2.15;;;;;;;33.03;29.36;101095.88;5064518;28;20052;-70
2022/08/03 07:42:12;;;;;;;2.70;1.90;;;;;;;33.77;26.76;101098.75;5064762;28;20098;-70
2022/08/03 07:44:39;;;;;;;6.80;2.10;;;;;;;33.98;27.31;101097.50;5063072;28;20114;-70
2022/08/03 07:47:05;;;;;;;6.75;1.98;;;;;;;34.30;26.82;101088.19;5064568;28;20514;-70
2022/08/03 07:49:32;;;;;;;3.80;1.65;;;;;;;33.05;28.25;101093.75;5063932;28;20094;-71
2022/08/03 07:54:43;;;;;;;3.65;2.08;;;;;;;32.86;27.45;101094.69;5063940;28;20412;-71
2022/08/03 07:57:10;;;;;;;10.25;2.00;;;;;;;32.49;28.58;101105.25;5064409;28;20045;-71
2022/08/03 07:59:38;;;;;;;4.75;2.00;;;;;;;32.21;28.57;101100.13;5061113;28;20049;-72
2022/08/03 08:02:06;;;;;;;8.30;2.22;;;;;;;32.47;28.13;101096.50;5063498;28;20535;-72
2022/08/03 08:04:32;;;;;;;7.68;2.00;;;;;;;31.98;28.62;101098.84;5065292;28;20090;-72
2022/08/03 08:06:59;;;;;;;2.70;1.52;;;;;;;32.65;28.38;101093.13;5051842;28;20047;-73
2022/08/03 08:09:25;;;;;;;8.20;1.77;;;;;;;32.24;28.41;101090.69;5072595;28;20044;-72
2022/08/03 08:11:53;;;;;;;8.35;1.90;;;;;;;33.57;27.18;101089.88;5065174;28;20037;-74
2022/08/03 08:14:19;;;;;;;3.30;1.70;;;;;;;34.47;25.92;101092.00;5062285;28;20135;-73
2022/08/03 08:16:46;;;;;;;3.80;1.52;;;;;;;34.43;25.79;101082.63;5065343;28;20098;-74
2022/08/03 08:19:13;;;;;;;3.97;1.65;;;;;;;35.12;25.68;101084.91;5065418;28;20044;-73
2022/08/03 08:21:40;;;;;;;6.97;1.92;;;;;;;35.38;25.62;101083.69;5065575;28;20169;-74
2022/08/03 08:24:06;;;;;;;8.27;1.80;;;;;;;34.76;25.07;101076.78;5067867;28;20056;-72
2022/08/03 08:26:33;;;;;;;4.00;1.60;;;;;;;35.43;25.04;101077.53;5069745;28;20067;-73
2022/08/03 08:29:01;;;;;;;6.43;1.60;;;;;;;35.04;24.66;101081.63;5068312;28;20052;-72
2022/08/03 08:31:27;;;;;;;6.88;1.88;;;;;;;35.14;25.38;101074.59;5069004;28;20036;-75
2022/08/03 08:33:54;;;;;;;8.93;1.65;;;;;;;34.59;24.45;101082.00;5069876;28;20040;-74
2022/08/03 08:36:20;;;;;;;2.28;1.70;;;;;;;35.32;23.44;101078.34;5066746;28;20056;-73
2022/08/03 08:38:47;;;;;;;3.58;1.92;;;;;;;36.11;23.52;101072.38;5067460;28;20040;-73
2022/08/03 08:41:14;;;;;;;3.58;1.55;;;;;;;35.52;24.29;101071.50;5069268;28;20116;-73
2022/08/03 08:43:42;;;;;;;5.10;1.42;;;;;;;35.79;23.83;101069.19;5066789;28;20560;-73
2022/08/03 08:46:12;;;;;;;5.80;1.80;;;;;;;35.07;23.73;101079.28;5067649;28;20052;-72
2022/08/03 08:48:41;;;;;;;3.65;1.60;;;;;;;35.58;23.90;101067.00;5069728;28;20040;-73
2022/08/03 08:51:09;;;;;;;5.28;1.67;;;;;;;35.98;22.31;101069.88;5068765;28;20157;-72
2022/08/03 08:53:37;;;;;;;6.60;1.90;;;;;;;35.27;25.15;101076.31;5068033;28;20045;-72
2022/08/03 08:56:05;;;;;;;4.28;1.75;;;;;;;35.57;23.38;101066.16;5067660;28;20051;-74
2022/08/03 08:58:37;;;;;;;3.30;1.92;;;;;;;34.36;23.78;101072.88;5069358;28;20044;-74
2022/08/03 09:01:04;;;;;;;3.83;1.60;;;;;;;34.97;23.83;101081.75;5068515;28;20048;-73
2022/08/03 09:03:33;;;;;;;4.95;1.80;;;;;;;35.76;24.30;101074.28;5065645;28;20055;-72
2022/08/03 09:06:00;;;;;;;2.42;1.67;;;;;;;36.57;23.42;101072.34;5068382;28;20040;-73
2022/08/03 09:08:28;;;;;;;1.92;1.50;;;;;;;36.63;22.70;101075.16;5069284;28;20508;-73
2022/08/03 09:10:54;;;;;;;2.30;1.50;;;;;;;36.58;22.51;101074.03;5067712;28;20044;-73
2022/08/03 09:13:21;;;;;;;5.30;1.77;;;;;;;37.09;23.42;101069.56;5067739;28;20041;-73
2022/08/03 09:15:48;;;;;;;6.25;1.70;;;;;;;37.40;21.87;101066.25;5068260;28;20697;-73
2022/08/03 09:18:28;;;;;;;4.82;1.80;;;;;;;35.17;25.09;101079.59;5066989;28;20087;-71
2022/08/03 09:21:13;;;;;;;4.40;2.13;;;;;;;35.60;24.00;101070.31;5049414;28;20041;-73
2022/08/03 09:23:45;;;;;;;2.55;1.58;;;;;;;34.39;26.14;101066.97;5066127;28;20032;-72
2022/08/03 09:26:12;;;;;;;2.83;1.70;;;;;;;34.55;24.45;101061.72;5067172;28;20500;-72
2022/08/03 09:28:39;;;;;;;2.95;1.85;;;;;;;35.14;23.59;101054.72;5067464;28;20052;-72
2022/08/03 09:31:07;;;;;;;4.40;1.73;;;;;;;35.88;24.22;101061.47;5067927;28;20044;-72
2022/08/03 09:33:46;;;;;;;2.15;1.55;;;;;;;36.26;23.05;101060.97;5067394;28;20036;-72
2022/08/03 09:36:36;;;;;;;2.17;1.52;;;;;;;36.31;23.44;101061.09;5066543;28;20473;-72
2022/08/03 09:39:05;;;;;;;3.15;1.55;;;;;;;36.65;23.17;101054.75;5066674;28;20114;-72
2022/08/03 09:41:32;;;;;;;2.53;1.75;;;;;;;35.94;23.97;101057.78;5067640;28;20080;-72
2022/08/03 09:43:58;;;;;;;2.80;1.65;;;;;;;36.51;23.96;101067.81;5065666;28;20036;-72
2022/08/03 09:46:27;;;;;;;2.97;1.85;;;;;;;36.09;22.46;101052.72;5067891;28;20041;-73
2022/08/03 09:48:53;;;;;;;5.97;1.75;;;;;;;36.43;24.25;101054.53;5068072;28;20139;-72
2022/08/03 09:51:24;;;;;;;2.97;1.73;;;;;;;35.89;23.34;101060.38;5068225;28;20103;-72
2022/08/03 09:53:56;;;;;;;6.72;1.65;;;;;;;35.41;26.06;101050.47;5065132;28;20036;-72
2022/08/03 09:56:37;;;;;;;3.78;1.80;;;;;;;36.59;27.21;101051.06;5067362;28;20048;-72
2022/08/03 09:59:03;;;;;;;2.80;1.70;;;;;;;37.15;23.23;101035.75;5064363;28;20052;-72
2022/08/03 10:01:33;;;;;;;6.10;1.75;;;;;;;37.53;21.74;101041.34;5067416;28;20041;-73
2022/08/03 10:03:59;;;;;;;4.45;2.00;;;;;;;37.66;21.92;101042.91;5065482;28;20048;-73
2022/08/03 10:06:26;;;;;;;5.28;1.80;;;;;;;36.81;22.50;101044.94;5064646;28;20539;-72
2022/08/03 10:09:06;;;;;;;4.78;1.80;;;;;;;36.15;23.85;101051.75;5067405;28;20048;-73
2022/08/03 10:11:33;;;;;;;2.45;1.60;;;;;;;36.78;23.29;101048.97;5068158;28;20050;-72
2022/08/03 10:14:01;;;;;;;5.47;1.85;;;;;;;37.17;22.84;101038.25;5065309;28;20633;-72
2022/08/03 10:16:32;;;;;;;3.05;1.70;;;;;;;37.34;22.67;101036.34;5065859;28;20094;-72
2022/08/03 10:18:59;;;;;;;3.30;1.60;;;;;;;37.52;22.97;101036.97;5065937;28;20101;-73
2022/08/03 10:21:28;;;;;;;3.80;1.50;;;;;;;37.78;21.32;101029.13;5066697;28;20052;-66
2022/08/03 10:23:57;;;;;;;3.33;1.90;;;;;;;37.85;23.17;101032.50;5066030;28;20048;-66
2022/08/03 10:26:25;;;;;;;5.53;1.80;;;;;;;38.43;21.40;101027.31;5065256;28;20044;-66
2022/08/03 10:28:53;;;;;;;3.70;1.60;;;;;;;38.47;21.12;101024.94;5066235;28;20036;-66
2022/08/03 10:31:22;;;;;;;3.58;1.75;;;;;;;38.33;22.79;101023.59;5065527;28;20049;-67
2022/08/03 10:33:51;;;;;;;4.40;1.50;;;;;;;38.09;21.30;101020.31;5065212;28;20500;-67
2022/08/03 10:36:18;;;;;;;4.15;1.67;;;;;;;37.89;20.75;101019.97;5065882;28;20488;-66
2022/08/03 10:38:51;;;;;;;7.78;2.00;;;;;;;38.17;21.45;101019.88;5065811;28;20496;-66
2022/08/03 10:41:20;;;;;;;2.88;1.65;;;;;;;38.22;21.91;101019.91;5063505;28;20463;-66
2022/08/03 10:43:50;;;;;;;5.60;1.63;;;;;;;38.29;21.01;101016.97;5063526;28;20044;-67
2022/08/03 10:46:19;;;;;;;3.33;1.88;;;;;;;38.55;24.07;101009.91;5065721;28;20098;-66
2022/08/03 10:48:45;;;;;;;3.38;1.70;;;;;;;38.25;21.96;101005.72;5065966;28;20150;-66
2022/08/03 10:51:13;;;;;;;2.28;1.70;;;;;;;38.70;20.86;101018.31;5065192;28;20102;-66
2022/08/03 10:53:41;;;;;;;6.18;1.77;;;;;;;38.78;21.27;101015.13;5062965;28;20048;-66
2022/08/03 10:59:57;;;;;;;4.15;1.63;;;;;;;39.91;22.61;101002.94;5045387;28;20047;-67
2022/08/03 11:03:02;;;;;;;3.55;1.73;;;;;;;40.17;22.31;100993.72;5045967;28;20525;-66
2022/08/03 11:05:30;;;;;;;3.88;1.83;;;;;;;39.98;20.61;100998.03;5044767;28;20056;-67
2022/08/03 11:08:29;;;;;;;2.42;1.60;;;;;;;39.54;19.87;100994.72;5054292;28;20106;-67
2022/08/03 11:10:58;;;;;;;4.43;1.45;;;;;;;39.01;19.49;100990.16;5065440;28;20549;-66
2022/08/03 11:13:32;;;;;;;2.78;1.42;;;;;;;38.79;21.28;100994.84;5065104;28;20648;-66
2022/08/03 11:16:02;;;;;;;5.03;1.60;;;;;;;38.87;21.73;100991.66;5063401;28;20068;-66
2022/08/03 11:18:28;;;;;;;4.28;1.58;;;;;;;38.93;21.31;100988.72;5064831;28;20045;-66
2022/08/03 11:20:56;;;;;;;1.80;1.60;;;;;;;38.35;21.05;100986.69;5059328;28;20675;-66
2022/08/03 11:23:41;;;;;;;3.72;1.52;;;;;;;38.04;20.87;100989.28;5064432;28;20803;-66
2022/08/03 11:26:09;;;;;;;3.13;1.73;;;;;;;38.34;21.12;100978.69;5064866;28;20044;-66
2022/08/03 11:28:38;;;;;;;3.80;1.52;;;;;;;38.67;23.36;100978.56;5063535;28;20045;-66
2022/08/03 11:31:45;;;;;;;4.47;1.60;;;;;;;38.75;22.71;100983.56;5063631;28;20040;-66
2022/08/03 11:34:13;;;;;;;3.30;1.38;;;;;;;38.78;20.07;100984.97;5064522;28;20063;-66
2022/08/03 11:37:13;;;;;;;6.25;1.90;;;;;;;37.67;20.89;100984.38;5066004;28;20040;-66
2022/08/03 11:39:42;;;;;;;2.33;1.50;;;;;;;37.33;22.74;100983.53;5063598;28;20045;-66
2022/08/03 11:42:42;;;;;;;5.47;1.83;;;;;;;38.06;22.13;100982.50;5062259;28;20072;-66
2022/08/03 11:45:10;;;;;;;3.65;1.75;;;;;;;38.15;21.35;100980.09;5058888;28;20076;-66